createdAt,value
2019-02-07T00:04:02.263Z,5.09
2019-02-07T00:09:57.308Z,4.68
2019-02-07T00:15:52.292Z,4.61
2019-02-07T00:21:47.298Z,5.35
2019-02-07T00:27:42.339Z,5.1
2019-02-07T00:33:37.286Z,5.93
2019-02-07T00:39:32.328Z,4.6
2019-02-07T00:45:27.303Z,4.93
2019-02-07T00:51:22.307Z,5.15
2019-02-07T00:57:17.289Z,4.48
2019-02-07T01:03:12.318Z,4.62
2019-02-07T01:09:07.314Z,4.76
2019-02-07T01:15:02.545Z,3.82
2019-02-07T01:20:57.340Z,4.67
2019-02-07T01:26:52.330Z,5.28
2019-02-07T01:32:47.342Z,4.2
2019-02-07T01:38:42.313Z,4.36
2019-02-07T01:44:37.344Z,3.94
2019-02-07T01:50:32.370Z,4.23
2019-02-07T01:56:27.371Z,4.22
2019-02-07T02:02:22.356Z,4.5
2019-02-07T02:08:17.352Z,4.74
2019-02-07T02:14:12.359Z,4.78
2019-02-07T02:20:07.347Z,4.4
2019-02-07T02:26:02.387Z,4.13
2019-02-07T02:31:57.343Z,4.4
2019-02-07T02:37:52.360Z,4.66
2019-02-07T02:43:47.361Z,4.99
2019-02-07T02:49:42.370Z,4.38
2019-02-07T02:55:37.467Z,4.32
2019-02-07T03:01:32.383Z,4.21
2019-02-07T03:07:27.414Z,4.19
2019-02-07T03:13:22.411Z,3.92
2019-02-07T03:19:17.387Z,4.39
2019-02-07T03:25:12.402Z,4.49
2019-02-07T03:31:07.370Z,4.1
2019-02-07T03:37:02.435Z,4.18
2019-02-07T03:42:57.388Z,4.88
2019-02-07T03:48:52.415Z,5.72
2019-02-07T03:54:47.405Z,4.56
2019-02-07T04:00:42.465Z,4.39
2019-02-07T04:06:37.416Z,4.53
2019-02-07T04:12:32.475Z,4.23
2019-02-07T04:18:27.412Z,5.02
2019-02-07T04:24:22.453Z,3.66
2019-02-07T04:30:17.424Z,3.8
2019-02-07T04:36:12.414Z,4.21
2019-02-07T04:42:07.441Z,4.13
2019-02-07T04:48:02.438Z,4.3
2019-02-07T04:53:57.436Z,4.15
2019-02-07T04:59:52.435Z,5.1
2019-02-07T05:05:47.468Z,4.19
2019-02-07T05:11:42.478Z,4.89
2019-02-07T05:17:37.443Z,4.63
2019-02-07T05:23:32.439Z,4.96
2019-02-07T05:29:27.483Z,4.64
2019-02-07T05:35:22.513Z,5.37
2019-02-07T05:41:17.474Z,5.56
2019-02-07T05:47:12.474Z,4.49
2019-02-07T05:53:07.492Z,5.1
2019-02-07T05:59:02.473Z,5.06
2019-02-07T06:04:57.463Z,4.53
2019-02-07T06:10:52.489Z,4.9
2019-02-07T06:16:47.489Z,5.08
2019-02-07T06:22:42.472Z,4.68
2019-02-07T06:28:37.471Z,5.17
2019-02-07T06:34:32.517Z,3.95
2019-02-07T06:40:27.491Z,4.67
2019-02-07T06:46:22.466Z,5.83
2019-02-07T06:52:17.498Z,5.73
2019-02-07T06:58:12.489Z,5.24
2019-02-07T07:04:07.522Z,4.85
2019-02-07T07:10:02.521Z,4.86
2019-02-07T07:15:57.503Z,5.28
2019-02-07T07:21:52.508Z,5.1
2019-02-07T07:27:47.558Z,9.17
2019-02-07T07:33:42.522Z,12.02
2019-02-07T07:39:37.583Z,8.48
2019-02-07T07:45:32.540Z,1.09
2019-02-07T07:51:27.535Z,5.92
2019-02-07T07:57:22.518Z,5.63
2019-02-07T08:03:17.538Z,6.14
2019-02-07T08:09:12.539Z,6.27
2019-02-07T08:15:07.538Z,6.42
2019-02-07T08:21:02.528Z,6.87
2019-02-07T08:26:57.557Z,7.22
2019-02-07T08:32:52.543Z,7.57
2019-02-07T08:38:49.670Z,7.96
2019-02-07T08:44:42.557Z,7.97
2019-02-07T08:50:37.553Z,7.63
2019-02-07T08:56:32.568Z,8.2
2019-02-07T09:02:27.558Z,8.53
2019-02-07T09:08:22.581Z,7.82
2019-02-07T09:14:17.583Z,8.82
2019-02-07T09:20:12.580Z,7.97
2019-02-07T09:26:07.593Z,9.16
2019-02-07T09:32:02.587Z,8.79
2019-02-07T09:37:57.626Z,8.23
2019-02-07T09:43:52.597Z,7.56
2019-02-07T09:49:47.585Z,7.31
2019-02-07T09:55:42.640Z,7.58
2019-02-07T10:01:37.630Z,8.05
2019-02-07T10:07:32.628Z,7.68
2019-02-07T10:13:27.598Z,8.1
2019-02-07T10:19:22.682Z,7.74
2019-02-07T10:25:17.629Z,9.66
2019-02-07T10:31:13.422Z,10.7
2019-02-07T10:37:07.655Z,7.49
2019-02-07T10:43:02.654Z,7.2
2019-02-07T10:48:57.616Z,6.42
2019-02-07T10:54:52.629Z,6.09
2019-02-07T11:00:47.642Z,4.84
2019-02-07T11:06:42.637Z,5.54
2019-02-07T11:12:37.617Z,5.64
2019-02-07T11:18:32.643Z,5.46
2019-02-07T11:24:27.640Z,5.72
2019-02-07T11:30:22.665Z,5.18
2019-02-07T11:36:17.653Z,5.6
2019-02-07T11:42:12.680Z,6.23
2019-02-07T11:48:07.658Z,5.68
2019-02-07T11:54:02.671Z,5.19
2019-02-07T11:59:57.662Z,4.71
2019-02-07T12:05:52.687Z,4.31
2019-02-07T12:11:48.608Z,4.13
2019-02-07T12:17:42.687Z,4.83
2019-02-07T12:23:37.685Z,4.7
2019-02-07T12:29:32.694Z,12.37
2019-02-07T12:35:27.715Z,4.8
2019-02-07T12:41:22.720Z,4.68
2019-02-07T12:47:17.704Z,4
2019-02-07T12:53:12.717Z,4.18
2019-02-07T12:59:07.700Z,3.43
2019-02-07T13:05:02.697Z,3.71
2019-02-07T13:10:57.685Z,3.46
2019-02-07T13:16:52.767Z,3.73
2019-02-07T13:22:47.721Z,4.03
2019-02-07T13:28:42.754Z,3.72
2019-02-07T13:34:37.760Z,3.38
2019-02-07T13:40:32.721Z,3.51
2019-02-07T13:46:27.731Z,3.31
2019-02-07T13:52:22.721Z,2.97
2019-02-07T13:58:17.749Z,2.37
2019-02-07T14:04:12.729Z,2.25
2019-02-07T14:10:07.736Z,3.28
2019-02-07T14:16:02.740Z,2.46
2019-02-07T14:21:57.755Z,2.64
2019-02-07T14:27:52.760Z,2.7
2019-02-07T14:33:47.769Z,2.28
2019-02-07T14:39:42.774Z,2.44
2019-02-07T14:45:37.757Z,2.75
2019-02-07T14:51:32.752Z,1.97
2019-02-07T14:57:27.774Z,2.05
2019-02-07T15:03:22.808Z,2.14
2019-02-07T15:09:17.787Z,3.74
2019-02-07T15:15:12.782Z,3.8
2019-02-07T15:21:07.795Z,4.06
2019-02-07T15:27:02.795Z,4.39
2019-02-07T15:32:57.801Z,4.97
2019-02-07T15:38:52.833Z,3.99
2019-02-07T15:44:47.846Z,4.87
2019-02-07T15:50:42.788Z,4.96
2019-02-07T15:56:37.798Z,5.17
2019-02-07T16:02:32.847Z,7.32
2019-02-07T16:08:27.813Z,14.25
2019-02-07T16:14:22.805Z,7.43
2019-02-07T16:20:17.874Z,5.51
2019-02-07T16:26:12.841Z,5.07
2019-02-07T16:32:07.841Z,5.49
2019-02-07T16:38:02.854Z,7.44
2019-02-07T16:43:57.839Z,11.08
2019-02-07T16:49:52.863Z,6.15
2019-02-07T16:55:47.862Z,8.11
2019-02-07T17:01:42.863Z,8.79
2019-02-07T17:07:37.831Z,6.63
2019-02-07T17:13:32.874Z,6.81
2019-02-07T17:19:27.865Z,10.53
2019-02-07T17:25:22.882Z,10.44
2019-02-07T17:31:17.911Z,9.8
2019-02-07T17:37:12.863Z,9.34
2019-02-07T17:43:07.872Z,9.81
2019-02-07T17:49:02.871Z,10.4
2019-02-07T17:54:57.928Z,10.95
2019-02-07T18:00:52.981Z,9.3
2019-02-07T18:06:47.884Z,9.95
2019-02-07T18:12:42.895Z,10.41
2019-02-07T18:18:37.895Z,10.41
2019-02-07T18:24:32.926Z,10.93
2019-02-07T18:30:27.891Z,10.2
2019-02-07T18:36:22.910Z,10.15
2019-02-07T18:42:17.903Z,11.83
2019-02-07T18:48:12.983Z,10.08
2019-02-07T18:54:07.893Z,10.05
2019-02-07T19:00:02.913Z,9.71
2019-02-07T19:05:57.954Z,11.71
2019-02-07T19:11:52.935Z,10.5
2019-02-07T19:17:47.961Z,11.61
2019-02-07T19:23:42.914Z,13.64
2019-02-07T19:29:37.929Z,14.96
2019-02-07T19:35:32.965Z,17.76
2019-02-07T19:41:27.936Z,17.16
2019-02-07T19:47:22.934Z,17.29
2019-02-07T19:53:17.964Z,15.25
2019-02-07T19:59:12.965Z,16.42
2019-02-07T20:05:07.958Z,15.82
2019-02-07T20:11:02.966Z,14.53
2019-02-07T20:16:58.012Z,14.63
2019-02-07T20:22:52.962Z,15.01
2019-02-07T20:28:47.971Z,14.22
2019-02-07T20:34:42.977Z,13.93
2019-02-07T20:40:37.982Z,14.16
2019-02-07T20:46:33.032Z,14.28
2019-02-07T20:52:27.971Z,14.53
2019-02-07T20:58:22.994Z,15.66
2019-02-07T21:04:18.071Z,15.47
2019-02-07T21:10:13.016Z,16.43
2019-02-07T21:16:08.030Z,15.24
2019-02-07T21:22:03.005Z,13.98
2019-02-07T21:27:57.999Z,15.13
2019-02-07T21:33:53.062Z,14.51
2019-02-07T21:39:48.009Z,15.45
2019-02-07T21:45:43.026Z,14.02
2019-02-07T21:51:38.024Z,15.89
2019-02-07T21:57:33.017Z,16.7
2019-02-07T22:03:28.067Z,15.62
2019-02-07T22:09:23.034Z,16.09
2019-02-07T22:15:18.022Z,17.27
2019-02-07T22:21:13.036Z,16.6
2019-02-07T22:27:08.037Z,16.96
2019-02-07T22:33:03.093Z,15.75
2019-02-07T22:38:58.053Z,16.18
2019-02-07T22:44:53.042Z,16.06
2019-02-07T22:50:48.048Z,15.01
2019-02-07T22:56:45.298Z,13.99
2019-02-07T23:02:38.045Z,14.42
2019-02-07T23:08:33.093Z,13.64
2019-02-07T23:14:28.067Z,14.54
2019-02-07T23:20:23.062Z,14.86
2019-02-07T23:26:18.065Z,13.93
2019-02-07T23:32:13.065Z,13.82
2019-02-07T23:38:08.096Z,13.65
2019-02-07T23:44:03.064Z,14.35
2019-02-07T23:49:58.080Z,13.7
2019-02-07T23:55:53.093Z,12.79
